KGLR

Gaylord Regional Airport

Gaylord, Michigan, USA
METAR KGLR 171553Z AUTO VRB03KT 10SM CLR 25/18 A2998 RMK AO2 SLP145 T02500183
Observed Flight Rules
Aug-17 @ 15:53 UTC (57 minutes ago) Visual Flight Rules
Wind Visibility Clouds
Variable at 3 knots 10 miles
  • Clear skies
Temperatures Readings
Current 25°C / 77°F
Dewpoint 18°C / 64°F
Humidity 65%
Altimeter 29.98" Hg
Pressure 1014.5 hPa
Elevation 407
METAR KGLR 171553Z AUTO VRB03KT 10SM CLR 25/18 A2998 RMK AO2 SLP145 T02500183
Observed Flight Rules
Aug-17 @ 15:53 UTC
(57 minutes ago)
VFR
Wind Visibility
Variable at 3 knots 10 miles
Clouds
  • Clear skies
Temperature Dewpoint
25°C / 77°F 18°C / 64°F
Humidity Altimeter Pressure
65% 29.98" Hg 1014.5 hPa